createdAt,value
2022-10-31T00:01:17.632Z,115.40
2022-10-31T00:02:51.267Z,115.70
2022-10-31T00:04:23.980Z,113.57
2022-10-31T00:05:56.122Z,114.50
2022-10-31T00:07:28.249Z,130.63
2022-10-31T00:09:03.628Z,165.43
2022-10-31T00:10:42.781Z,166.63
2022-10-31T00:12:15.163Z,235.87
2022-10-31T00:13:47.522Z,163.13
2022-10-31T00:15:20.290Z,199.23
2022-10-31T00:16:52.662Z,188.27
2022-10-31T00:18:24.938Z,156.53
2022-10-31T00:19:57.986Z,175.20
2022-10-31T00:21:32.401Z,169.90
2022-10-31T00:23:06.519Z,164.47
2022-10-31T00:24:38.700Z,170.40
2022-10-31T00:26:11.402Z,173.93
2022-10-31T00:27:43.594Z,186.63
2022-10-31T00:29:16.008Z,189.97
2022-10-31T00:30:48.131Z,183.77
2022-10-31T00:32:20.484Z,191.00
2022-10-31T00:33:52.761Z,184.00
2022-10-31T00:35:25.202Z,174.77
2022-10-31T00:36:57.366Z,189.93
2022-10-31T00:38:30.378Z,180.83
2022-10-31T00:40:02.782Z,188.57
2022-10-31T00:41:34.965Z,193.33
2022-10-31T00:43:07.357Z,200.90
2022-10-31T00:44:39.669Z,174.87
2022-10-31T00:46:13.433Z,199.37
2022-10-31T00:47:47.821Z,207.23
2022-10-31T00:49:20.149Z,208.33
2022-10-31T00:50:52.398Z,188.10
2022-10-31T00:52:24.723Z,180.70
2022-10-31T00:53:56.878Z,193.67
2022-10-31T00:55:29.672Z,192.83
2022-10-31T00:57:01.876Z,188.00
2022-10-31T00:58:34.092Z,187.40
2022-10-31T01:00:07.278Z,172.27
2022-10-31T01:01:40.037Z,160.03
2022-10-31T01:03:12.270Z,180.70
2022-10-31T01:04:45.286Z,180.43
2022-10-31T01:06:17.569Z,159.63
2022-10-31T01:07:50.005Z,169.20
2022-10-31T01:09:22.243Z,190.63
2022-10-31T01:11:23.763Z,180.73
2022-10-31T01:12:56.279Z,177.20
2022-10-31T01:14:28.860Z,191.43
2022-10-31T01:16:03.005Z,192.93
2022-10-31T01:17:36.687Z,229.70
2022-10-31T01:19:09.241Z,255.07
2022-10-31T01:20:41.600Z,269.73
2022-10-31T01:22:22.626Z,248.63
2022-10-31T01:23:56.893Z,224.23
2022-10-31T01:25:29.133Z,229.43
2022-10-31T01:27:01.300Z,256.00
2022-10-31T01:28:36.368Z,234.50
2022-10-31T01:30:09.829Z,224.50
2022-10-31T01:31:41.973Z,201.67
2022-10-31T01:33:23.110Z,196.93
2022-10-31T01:34:56.394Z,211.50
2022-10-31T01:36:36.053Z,193.60
2022-10-31T01:38:08.437Z,231.87
2022-10-31T01:39:40.867Z,206.80
2022-10-31T01:41:17.009Z,185.63
2022-10-31T01:42:49.140Z,207.67
2022-10-31T01:44:21.400Z,201.17
2022-10-31T01:45:55.603Z,186.63
2022-10-31T01:47:46.763Z,201.80
2022-10-31T01:49:27.797Z,188.93
2022-10-31T01:51:00.972Z,198.63
2022-10-31T01:52:47.381Z,214.83
2022-10-31T01:54:24.980Z,203.57
2022-10-31T01:55:57.126Z,200.43
2022-10-31T01:57:32.895Z,202.73
2022-10-31T01:59:12.762Z,203.23
2022-10-31T02:00:52.009Z,241.03
2022-10-31T02:02:26.606Z,186.30
2022-10-31T02:03:59.124Z,213.90
2022-10-31T02:05:34.459Z,206.23
2022-10-31T02:07:19.857Z,207.10
2022-10-31T02:08:52.724Z,219.43
2022-10-31T02:10:26.085Z,197.60
2022-10-31T02:12:00.533Z,205.87
2022-10-31T02:13:35.000Z,220.37
2022-10-31T02:15:09.536Z,254.67
2022-10-31T02:16:41.732Z,251.67
2022-10-31T02:18:14.606Z,206.73
2022-10-31T02:20:22.069Z,222.93
2022-10-31T02:22:35.755Z,209.73
2022-10-31T02:24:45.710Z,226.23
2022-10-31T02:26:48.326Z,202.73
2022-10-31T02:28:41.906Z,215.83
2022-10-31T02:30:28.826Z,179.43
2022-10-31T02:32:14.243Z,174.47
2022-10-31T02:33:53.545Z,184.63
2022-10-31T02:35:59.206Z,283.47
2022-10-31T02:37:47.066Z,216.57
2022-10-31T02:39:35.170Z,258.70
2022-10-31T02:41:32.539Z,305.90
2022-10-31T02:43:42.643Z,335.30
2022-10-31T02:45:45.150Z,716.37
2022-10-31T02:47:23.193Z,979.87
2022-10-31T02:49:04.915Z,753.10
2022-10-31T02:50:47.059Z,727.90
2022-10-31T02:52:34.599Z,1104.07
2022-10-31T02:54:18.770Z,544.53
2022-10-31T02:56:14.117Z,1388.13
2022-10-31T02:57:46.361Z,1109.53
2022-10-31T02:59:25.680Z,1633.07
2022-10-31T03:01:18.924Z,865.90
2022-10-31T03:03:21.515Z,1852.23
2022-10-31T03:05:47.050Z,1371.57
2022-10-31T03:07:37.426Z,919.10
2022-10-31T03:09:27.870Z,742.27
2022-10-31T03:11:08.021Z,606.67
2022-10-31T03:12:59.257Z,343.30
2022-10-31T03:15:06.743Z,475.27
2022-10-31T03:16:49.402Z,868.53
2022-10-31T03:18:34.703Z,524.73
2022-10-31T03:20:11.566Z,713.43
2022-10-31T03:21:59.065Z,780.10
2022-10-31T03:23:35.339Z,252.87
2022-10-31T03:25:09.221Z,241.37
2022-10-31T03:26:57.110Z,393.57
2022-10-31T03:28:39.241Z,430.70
2022-10-31T03:30:12.578Z,379.20
2022-10-31T03:31:58.317Z,186.90
2022-10-31T03:33:38.432Z,311.97
2022-10-31T03:35:16.692Z,141.97
2022-10-31T03:36:58.170Z,204.10
2022-10-31T03:38:32.874Z,550.90
2022-10-31T03:40:10.456Z,522.63
2022-10-31T03:41:55.854Z,572.33
2022-10-31T03:43:37.480Z,436.93
2022-10-31T03:45:27.438Z,399.90
2022-10-31T03:47:00.894Z,668.47
2022-10-31T03:48:34.458Z,542.27
2022-10-31T03:50:09.645Z,122.30
2022-10-31T03:51:59.226Z,145.13
2022-10-31T03:53:55.915Z,619.90
2022-10-31T03:55:53.555Z,784.57
2022-10-31T04:00:07.157Z,523.80
2022-10-31T04:01:48.398Z,561.73
2022-10-31T04:03:36.162Z,382.40
2022-10-31T04:05:12.278Z,488.57
2022-10-31T04:06:48.149Z,246.03
2022-10-31T04:08:28.076Z,240.60
2022-10-31T04:10:05.678Z,548.17
2022-10-31T04:11:47.564Z,392.93
2022-10-31T04:13:28.776Z,347.57
2022-10-31T04:15:06.636Z,269.43
2022-10-31T04:16:44.775Z,413.77
2022-10-31T04:18:17.251Z,393.33
2022-10-31T04:19:49.637Z,239.40
2022-10-31T04:21:30.217Z,127.47
2022-10-31T04:23:03.729Z,180.77
2022-10-31T04:24:40.787Z,356.43
2022-10-31T04:26:14.140Z,268.63
2022-10-31T04:27:46.305Z,116.00
2022-10-31T04:29:19.031Z,216.13
2022-10-31T04:30:51.845Z,164.33
2022-10-31T04:32:24.088Z,372.80
2022-10-31T04:33:56.473Z,390.07
2022-10-31T04:35:28.597Z,499.57
2022-10-31T04:37:00.814Z,373.73
2022-10-31T04:38:33.138Z,167.20
2022-10-31T04:40:06.245Z,278.23
2022-10-31T04:41:38.746Z,237.53
2022-10-31T04:43:11.618Z,303.73
2022-10-31T04:44:43.802Z,437.03
2022-10-31T04:46:16.531Z,236.80
2022-10-31T04:47:49.057Z,370.33
2022-10-31T04:49:21.554Z,115.40
2022-10-31T04:50:53.694Z,102.30
2022-10-31T04:52:26.246Z,215.57
2022-10-31T04:53:58.441Z,126.97
2022-10-31T04:55:30.927Z,136.37
2022-10-31T04:57:03.306Z,138.23
2022-10-31T04:58:35.973Z,121.37
2022-10-31T05:00:09.502Z,214.67
2022-10-31T05:01:41.933Z,112.53
2022-10-31T05:03:14.353Z,203.77
2022-10-31T05:04:46.875Z,163.93
2022-10-31T05:06:19.282Z,124.43
2022-10-31T05:07:52.682Z,291.63
2022-10-31T05:09:24.809Z,280.77
2022-10-31T05:11:05.077Z,376.13
2022-10-31T05:12:37.520Z,358.87
2022-10-31T05:14:09.785Z,262.53
2022-10-31T05:15:42.365Z,415.17
2022-10-31T05:17:18.010Z,476.50
2022-10-31T05:18:50.234Z,330.93
2022-10-31T05:20:26.638Z,480.07
2022-10-31T05:21:58.774Z,239.20
2022-10-31T05:23:31.416Z,142.87
2022-10-31T05:25:18.185Z,157.03
2022-10-31T05:26:51.033Z,149.90
2022-10-31T05:28:23.553Z,322.20
2022-10-31T05:29:55.833Z,275.63
2022-10-31T05:31:28.150Z,469.53
2022-10-31T05:33:01.047Z,813.73
2022-10-31T05:34:34.024Z,384.27
2022-10-31T05:36:06.525Z,778.93
2022-10-31T05:37:39.495Z,1011.67
2022-10-31T05:39:11.837Z,860.60
2022-10-31T05:40:44.284Z,929.47
2022-10-31T05:42:16.443Z,1278.20
2022-10-31T05:43:48.688Z,1137.83
2022-10-31T05:45:22.619Z,1188.00
2022-10-31T05:46:55.346Z,606.93
2022-10-31T05:48:27.671Z,92.93
2022-10-31T05:49:59.885Z,275.73
2022-10-31T05:51:32.218Z,231.77
2022-10-31T05:53:06.605Z,383.43
2022-10-31T05:54:39.360Z,167.90
2022-10-31T05:56:12.058Z,249.10
2022-10-31T05:57:44.437Z,376.90
2022-10-31T05:59:16.771Z,758.67
2022-10-31T06:00:49.319Z,404.60
2022-10-31T06:02:22.571Z,317.30
2022-10-31T06:03:55.057Z,225.50
2022-10-31T06:05:28.226Z,421.57
2022-10-31T06:07:00.345Z,580.20
2022-10-31T06:08:32.882Z,577.40
2022-10-31T06:10:08.663Z,548.73
2022-10-31T06:11:41.011Z,419.07
2022-10-31T06:13:13.487Z,228.87
2022-10-31T06:14:45.696Z,120.73
2022-10-31T06:16:17.817Z,126.87
2022-10-31T06:18:07.710Z,595.77
2022-10-31T06:19:40.158Z,109.87
2022-10-31T06:21:14.915Z,162.53
2022-10-31T06:22:50.308Z,222.30
2022-10-31T06:24:22.889Z,469.50
2022-10-31T06:25:56.382Z,683.10
2022-10-31T06:27:29.277Z,808.67
2022-10-31T06:29:04.177Z,1118.07
2022-10-31T06:30:36.877Z,1120.73
2022-10-31T06:32:12.534Z,1375.23
2022-10-31T06:33:44.962Z,349.60
2022-10-31T06:35:17.761Z,502.10
2022-10-31T06:36:50.439Z,1138.40
2022-10-31T06:38:22.644Z,703.43
2022-10-31T06:39:55.234Z,349.73
2022-10-31T06:41:27.895Z,593.30
2022-10-31T06:43:02.997Z,851.37
2022-10-31T06:44:35.505Z,1010.13
2022-10-31T06:46:08.154Z,676.23
2022-10-31T06:47:50.976Z,451.10
2022-10-31T06:49:33.146Z,264.60
2022-10-31T06:51:05.514Z,159.13
2022-10-31T06:52:37.799Z,498.37
2022-10-31T06:54:10.478Z,1091.60
2022-10-31T06:55:43.260Z,131.53
2022-10-31T06:57:18.997Z,769.57
2022-10-31T06:58:51.509Z,164.97
2022-10-31T07:00:24.407Z,293.20
2022-10-31T07:01:58.405Z,632.77
2022-10-31T07:03:31.601Z,627.17
2022-10-31T07:05:04.021Z,656.23
2022-10-31T07:06:36.255Z,517.97
2022-10-31T07:08:12.853Z,64.27
2022-10-31T07:09:45.250Z,319.23
2022-10-31T07:11:17.638Z,110.77
2022-10-31T07:12:55.757Z,182.97
2022-10-31T07:14:27.900Z,290.00
2022-10-31T07:16:12.968Z,449.57
2022-10-31T07:17:45.509Z,160.33
2022-10-31T07:19:18.235Z,79.73
2022-10-31T07:20:50.902Z,203.70
2022-10-31T07:22:23.333Z,502.53
2022-10-31T07:23:56.254Z,67.43
2022-10-31T07:25:28.461Z,34.33
2022-10-31T07:28:38.165Z,439.00
2022-10-31T07:30:13.621Z,181.47
2022-10-31T07:31:48.574Z,421.73
2022-10-31T07:33:21.442Z,190.90
2022-10-31T07:34:53.811Z,95.00
2022-10-31T07:36:26.430Z,240.03
2022-10-31T07:38:07.075Z,694.63
2022-10-31T07:39:39.986Z,745.37
2022-10-31T07:41:12.143Z,187.80
2022-10-31T07:42:48.140Z,230.90
2022-10-31T07:44:21.339Z,770.70
2022-10-31T07:45:55.032Z,452.50
2022-10-31T07:47:27.410Z,346.53
2022-10-31T07:48:59.750Z,250.37
2022-10-31T07:50:36.993Z,259.10
2022-10-31T07:52:09.617Z,88.60
2022-10-31T07:53:41.756Z,74.90
2022-10-31T07:55:15.642Z,173.33
2022-10-31T07:56:50.002Z,49.57
2022-10-31T07:58:22.266Z,389.73
2022-10-31T07:59:54.954Z,181.90
2022-10-31T08:01:27.677Z,104.97
2022-10-31T08:03:07.893Z,361.80
2022-10-31T08:04:41.187Z,167.23
2022-10-31T08:06:15.295Z,644.97
2022-10-31T08:07:48.512Z,149.70
2022-10-31T08:09:21.034Z,625.23
2022-10-31T08:10:53.653Z,220.47
2022-10-31T08:12:25.869Z,68.20
2022-10-31T08:13:58.571Z,73.47
2022-10-31T08:15:31.642Z,121.73
2022-10-31T08:17:04.953Z,96.50
2022-10-31T08:18:38.973Z,42.43
2022-10-31T08:20:11.624Z,36.07
2022-10-31T08:21:44.189Z,44.57
2022-10-31T08:23:17.057Z,62.77
2022-10-31T08:24:49.606Z,48.33
2022-10-31T08:26:22.489Z,61.00
2022-10-31T08:27:57.085Z,73.80
2022-10-31T08:29:29.691Z,76.13
2022-10-31T08:31:02.146Z,67.83
2022-10-31T08:32:34.497Z,47.00
2022-10-31T08:34:07.130Z,39.33
2022-10-31T08:35:40.051Z,37.47
2022-10-31T08:37:12.728Z,35.53
2022-10-31T08:38:44.854Z,39.33
2022-10-31T08:40:17.105Z,37.37
2022-10-31T08:41:49.472Z,39.83
2022-10-31T08:43:21.783Z,33.88
2022-10-31T08:44:54.019Z,36.07
2022-10-31T08:46:26.228Z,32.33
2022-10-31T08:48:01.824Z,34.47
2022-10-31T08:49:34.441Z,36.53
2022-10-31T08:51:07.594Z,33.15
2022-10-31T08:53:03.648Z,32.50
2022-10-31T08:54:33.251Z,32.40
2022-10-31T08:56:06.154Z,34.70
2022-10-31T08:57:38.521Z,34.95
2022-10-31T08:59:12.178Z,32.20
2022-10-31T09:00:47.466Z,32.42
2022-10-31T09:02:19.828Z,37.38
2022-10-31T09:03:52.323Z,32.28
2022-10-31T09:05:24.823Z,37.88
2022-10-31T09:08:49.621Z,33.60
2022-10-31T09:10:22.117Z,29.90
2022-10-31T09:11:54.721Z,31.55
2022-10-31T09:13:28.394Z,31.08
2022-10-31T09:15:02.880Z,36.83
2022-10-31T09:16:35.021Z,32.72
2022-10-31T09:18:09.151Z,33.30
2022-10-31T09:19:41.339Z,34.25
2022-10-31T09:21:14.279Z,34.35
2022-10-31T09:22:47.266Z,31.05
2022-10-31T09:24:19.629Z,30.52
2022-10-31T09:25:53.953Z,29.65
2022-10-31T09:27:26.289Z,31.85
2022-10-31T09:28:59.592Z,30.73
2022-10-31T09:30:35.866Z,26.92
2022-10-31T09:32:08.033Z,29.42
2022-10-31T09:33:40.343Z,27.40
2022-10-31T09:36:50.266Z,30.75
2022-10-31T09:38:24.293Z,29.48
2022-10-31T09:39:56.707Z,30.98
2022-10-31T09:41:41.238Z,29.77
2022-10-31T09:43:20.160Z,33.30
2022-10-31T09:45:21.778Z,34.08
2022-10-31T09:47:15.424Z,29.88
2022-10-31T09:49:35.472Z,28.63
2022-10-31T09:51:26.457Z,29.33
2022-10-31T09:53:09.665Z,28.15
2022-10-31T09:54:50.814Z,28.83
2022-10-31T09:56:26.408Z,28.08
2022-10-31T09:58:01.174Z,30.13
2022-10-31T09:59:41.823Z,32.15
2022-10-31T10:01:30.947Z,34.15
2022-10-31T10:03:14.559Z,34.42
2022-10-31T10:04:59.421Z,33.60
2022-10-31T10:06:41.493Z,32.35
2022-10-31T10:08:21.596Z,28.63
2022-10-31T10:09:54.284Z,31.70
2022-10-31T10:11:45.535Z,30.95
2022-10-31T10:13:17.941Z,32.33
2022-10-31T10:15:29.461Z,30.45
2022-10-31T10:17:26.834Z,30.40
2022-10-31T10:19:15.362Z,40.35
2022-10-31T10:21:18.106Z,31.25
2022-10-31T10:23:31.021Z,33.92
2022-10-31T10:25:22.734Z,29.30
2022-10-31T10:27:16.784Z,31.23
2022-10-31T10:29:25.046Z,29.85
2022-10-31T10:31:00.606Z,32.10
2022-10-31T10:32:50.943Z,28.63
2022-10-31T10:34:44.513Z,28.30
2022-10-31T10:36:40.602Z,30.15
2022-10-31T10:38:26.285Z,34.30
2022-10-31T10:40:16.669Z,30.35
2022-10-31T10:42:10.326Z,31.65
2022-10-31T10:43:42.566Z,28.13
2022-10-31T10:45:38.206Z,32.63
2022-10-31T10:47:29.891Z,28.33
2022-10-31T10:49:11.151Z,32.63
2022-10-31T10:50:51.085Z,31.95
2022-10-31T10:52:53.626Z,27.20
2022-10-31T10:54:47.556Z,31.45
2022-10-31T10:56:42.086Z,31.38
2022-10-31T10:58:14.502Z,30.95
2022-10-31T10:59:47.797Z,28.48
2022-10-31T11:01:20.190Z,30.25
2022-10-31T11:02:53.374Z,22.23
2022-10-31T11:04:32.438Z,31.17
2022-10-31T11:06:05.011Z,28.70
2022-10-31T11:07:41.561Z,28.10
2022-10-31T11:09:17.765Z,29.58
2022-10-31T11:11:31.745Z,29.23
2022-10-31T11:13:24.363Z,27.55
2022-10-31T11:15:02.115Z,27.30
2022-10-31T11:16:41.652Z,35.83
2022-10-31T11:20:16.312Z,27.02
2022-10-31T11:21:54.319Z,25.63
2022-10-31T11:23:29.894Z,25.77
2022-10-31T11:25:38.446Z,32.15
2022-10-31T11:27:22.166Z,29.40
2022-10-31T11:29:03.201Z,26.80
2022-10-31T11:30:56.242Z,31.17
2022-10-31T11:32:30.761Z,31.33
2022-10-31T11:34:16.500Z,27.70
2022-10-31T11:35:53.398Z,24.73
2022-10-31T11:37:41.910Z,29.08
2022-10-31T11:39:25.063Z,31.40
2022-10-31T11:41:19.087Z,32.95
2022-10-31T11:42:56.620Z,27.35
2022-10-31T11:44:33.520Z,32.55
2022-10-31T11:46:41.542Z,33.05
2022-10-31T11:48:25.736Z,31.75
2022-10-31T11:50:10.542Z,28.85
2022-10-31T11:51:43.073Z,33.25
2022-10-31T11:53:21.505Z,28.13
2022-10-31T11:55:01.140Z,29.17
2022-10-31T11:56:43.663Z,28.02
2022-10-31T11:58:27.119Z,26.63
2022-10-31T12:00:05.971Z,34.08
2022-10-31T12:01:48.845Z,27.42
2022-10-31T12:03:32.000Z,30.75
2022-10-31T12:05:28.601Z,28.67
2022-10-31T12:07:00.857Z,27.23
2022-10-31T12:08:37.693Z,30.70
2022-10-31T12:10:14.144Z,32.55
2022-10-31T12:12:23.681Z,32.00
2022-10-31T12:14:32.965Z,24.92
2022-10-31T12:16:25.932Z,31.00
2022-10-31T12:18:25.873Z,28.08
2022-10-31T12:20:35.952Z,29.48
2022-10-31T12:23:08.527Z,37.50
2022-10-31T12:24:53.802Z,27.95
2022-10-31T12:26:53.714Z,27.42
2022-10-31T12:28:41.363Z,28.40
2022-10-31T12:30:24.885Z,33.95
2022-10-31T12:32:43.862Z,29.75
2022-10-31T12:34:53.215Z,34.35
2022-10-31T12:36:53.023Z,31.23
2022-10-31T12:39:01.975Z,33.08
2022-10-31T12:41:02.014Z,31.48
2022-10-31T12:42:43.172Z,33.03
2022-10-31T12:45:08.790Z,27.42
2022-10-31T12:46:54.649Z,30.58
2022-10-31T12:49:05.071Z,29.17
2022-10-31T12:51:05.044Z,30.75
2022-10-31T12:52:51.663Z,27.80
2022-10-31T12:55:07.102Z,26.33
2022-10-31T12:57:02.929Z,30.08
2022-10-31T12:58:44.731Z,33.45
2022-10-31T13:00:24.252Z,30.00
2022-10-31T13:02:06.391Z,26.08
2022-10-31T13:04:06.191Z,35.10
2022-10-31T13:05:45.709Z,26.17
2022-10-31T13:07:38.192Z,27.27
2022-10-31T13:09:19.334Z,31.05
2022-10-31T13:11:16.405Z,31.90
2022-10-31T13:12:58.406Z,30.70
2022-10-31T13:14:47.166Z,30.05
2022-10-31T13:16:37.778Z,33.03
2022-10-31T13:18:29.233Z,30.58
2022-10-31T13:20:23.442Z,31.52
2022-10-31T13:22:18.521Z,23.20
2022-10-31T13:23:55.315Z,24.77
2022-10-31T13:25:39.421Z,28.52
2022-10-31T13:27:45.234Z,27.70
2022-10-31T13:29:31.572Z,31.20
2022-10-31T13:31:05.355Z,28.98
2022-10-31T13:32:49.406Z,22.63
2022-10-31T13:34:39.661Z,28.60
2022-10-31T13:36:26.788Z,25.20
2022-10-31T13:38:22.900Z,28.20
2022-10-31T13:40:10.629Z,31.23
2022-10-31T13:42:40.478Z,24.83
2022-10-31T13:44:44.895Z,32.53
2022-10-31T13:46:46.367Z,27.50
2022-10-31T13:48:20.414Z,27.77
2022-10-31T13:50:03.598Z,23.13
2022-10-31T13:51:36.241Z,28.73
2022-10-31T13:53:23.704Z,32.25
2022-10-31T13:54:58.635Z,25.65
2022-10-31T13:56:34.754Z,28.48
2022-10-31T13:58:30.784Z,25.67
2022-10-31T14:00:21.411Z,27.05
2022-10-31T14:02:02.193Z,26.60
2022-10-31T14:05:36.752Z,27.33
2022-10-31T14:07:14.627Z,26.85
2022-10-31T14:08:53.341Z,32.33
2022-10-31T14:10:33.935Z,28.83
2022-10-31T14:12:31.652Z,37.92
2022-10-31T14:14:11.691Z,22.70
2022-10-31T14:15:55.387Z,30.35
2022-10-31T14:17:39.529Z,30.30
2022-10-31T14:19:19.738Z,30.60
2022-10-31T14:20:52.027Z,23.90
2022-10-31T14:22:29.922Z,27.73
2022-10-31T14:24:02.339Z,30.38
2022-10-31T14:25:38.490Z,29.00
2022-10-31T14:27:29.406Z,27.77
2022-10-31T14:29:14.619Z,31.60
2022-10-31T14:30:59.875Z,37.40
2022-10-31T14:32:32.187Z,29.90
2022-10-31T14:34:25.956Z,30.63
2022-10-31T14:36:13.651Z,28.52
2022-10-31T14:38:12.302Z,30.15
2022-10-31T14:40:16.597Z,24.23
2022-10-31T14:42:56.909Z,33.35
2022-10-31T14:45:29.821Z,34.15
2022-10-31T14:47:37.667Z,27.15
2022-10-31T14:49:46.980Z,25.52
2022-10-31T14:51:29.533Z,30.77
2022-10-31T14:53:06.801Z,27.57
2022-10-31T14:54:48.478Z,33.07
2022-10-31T14:56:29.735Z,32.13
2022-10-31T14:58:08.474Z,28.73
2022-10-31T14:59:49.350Z,31.27
2022-10-31T15:01:37.781Z,28.23
2022-10-31T15:03:28.223Z,31.33
2022-10-31T15:05:02.970Z,30.43
2022-10-31T15:06:48.019Z,25.03
2022-10-31T15:08:46.453Z,26.40
2022-10-31T15:10:33.118Z,29.47
2022-10-31T15:12:27.813Z,27.50
2022-10-31T15:14:03.215Z,30.17
2022-10-31T15:15:36.869Z,30.40
2022-10-31T15:17:13.084Z,26.70
2022-10-31T15:19:01.514Z,27.73
2022-10-31T15:20:46.485Z,26.33
2022-10-31T15:22:23.682Z,24.23
2022-10-31T15:24:00.759Z,25.23
2022-10-31T15:25:36.487Z,27.90
2022-10-31T15:27:19.179Z,26.97
2022-10-31T15:29:11.811Z,33.23
2022-10-31T15:30:54.624Z,26.80
2022-10-31T15:32:30.754Z,33.90
2022-10-31T15:34:21.806Z,26.97
2022-10-31T15:36:03.557Z,32.90
2022-10-31T15:37:35.932Z,24.40
2022-10-31T15:39:15.045Z,29.40
2022-10-31T15:41:03.902Z,31.53
2022-10-31T15:42:43.032Z,31.80
2022-10-31T15:44:30.896Z,29.63
2022-10-31T15:46:08.193Z,31.33
2022-10-31T15:47:49.162Z,26.20
2022-10-31T15:49:48.483Z,33.50
2022-10-31T15:51:38.444Z,27.33
2022-10-31T15:53:38.616Z,29.27
2022-10-31T15:55:10.885Z,32.57
2022-10-31T15:56:45.527Z,31.50
2022-10-31T15:58:18.906Z,29.57
2022-10-31T15:59:51.680Z,29.50
2022-10-31T16:01:32.307Z,34.10
2022-10-31T16:03:11.512Z,47.60
2022-10-31T16:04:56.724Z,34.30
2022-10-31T16:06:30.220Z,64.87
2022-10-31T16:08:02.529Z,82.17
2022-10-31T16:09:34.873Z,77.33
2022-10-31T16:11:13.675Z,48.33
2022-10-31T16:12:47.329Z,38.47
2022-10-31T16:14:27.230Z,43.67
2022-10-31T16:16:34.121Z,43.37
2022-10-31T16:18:12.221Z,39.00
2022-10-31T16:20:08.064Z,36.87
2022-10-31T16:21:42.241Z,37.37
2022-10-31T16:23:21.870Z,48.27
2022-10-31T16:25:15.798Z,42.57
2022-10-31T16:26:55.314Z,49.43
2022-10-31T16:28:31.974Z,42.77
2022-10-31T16:30:48.705Z,47.97
2022-10-31T16:32:37.531Z,40.07
2022-10-31T16:34:26.251Z,43.43
2022-10-31T16:36:15.867Z,40.70
2022-10-31T16:37:55.020Z,43.53
2022-10-31T16:39:27.241Z,38.90
2022-10-31T16:41:01.800Z,43.40
2022-10-31T16:42:34.274Z,49.33
2022-10-31T16:44:18.180Z,46.10
2022-10-31T16:45:54.063Z,49.03
2022-10-31T16:47:28.573Z,46.80
2022-10-31T16:49:01.080Z,41.97
2022-10-31T16:50:34.080Z,60.13
2022-10-31T16:52:06.495Z,44.53
2022-10-31T16:53:42.754Z,39.07
2022-10-31T16:55:20.934Z,56.27
2022-10-31T16:56:53.370Z,52.57
2022-10-31T16:58:33.785Z,55.23
2022-10-31T17:00:06.771Z,47.57
2022-10-31T17:01:43.334Z,49.20
2022-10-31T17:03:15.863Z,53.57
2022-10-31T17:04:50.816Z,48.83
2022-10-31T17:06:28.618Z,56.67
2022-10-31T17:08:01.647Z,68.07
2022-10-31T17:09:34.104Z,81.80
2022-10-31T17:11:09.646Z,51.90
2022-10-31T17:12:47.531Z,64.20
2022-10-31T17:14:20.282Z,65.10
2022-10-31T17:15:55.973Z,60.70
2022-10-31T17:17:28.436Z,72.67
2022-10-31T17:19:00.886Z,60.40
2022-10-31T17:20:33.595Z,52.70
2022-10-31T17:22:05.844Z,47.70
2022-10-31T17:23:38.623Z,46.40
2022-10-31T17:25:18.725Z,57.17
2022-10-31T17:26:50.954Z,57.10
2022-10-31T17:28:23.226Z,50.37
2022-10-31T17:29:55.591Z,58.23
2022-10-31T17:31:32.474Z,63.13
2022-10-31T17:33:04.739Z,59.10
2022-10-31T17:34:37.065Z,57.33
2022-10-31T17:36:09.468Z,49.73
2022-10-31T17:37:44.078Z,77.47
2022-10-31T17:39:16.448Z,55.20
2022-10-31T17:42:25.957Z,54.33
2022-10-31T17:43:59.830Z,53.90
2022-10-31T17:45:32.547Z,58.73
2022-10-31T17:47:04.829Z,58.40
2022-10-31T17:48:38.164Z,59.23
2022-10-31T17:50:10.766Z,59.23
2022-10-31T17:51:42.941Z,61.27
2022-10-31T17:53:15.410Z,54.00
2022-10-31T17:54:48.006Z,64.23
2022-10-31T17:56:20.122Z,64.17
2022-10-31T17:57:52.473Z,72.60
2022-10-31T17:59:24.670Z,65.70
2022-10-31T18:00:58.235Z,58.97
2022-10-31T18:02:30.658Z,60.43
2022-10-31T18:04:03.301Z,61.83
2022-10-31T18:05:35.830Z,53.40
2022-10-31T18:07:08.490Z,62.10
2022-10-31T18:08:41.330Z,66.37
2022-10-31T18:10:13.730Z,66.40
2022-10-31T18:11:46.124Z,65.97
2022-10-31T18:13:18.391Z,62.90
2022-10-31T18:14:52.818Z,69.13
2022-10-31T18:16:26.867Z,75.80
2022-10-31T18:17:59.521Z,73.13
2022-10-31T18:19:32.062Z,66.40
2022-10-31T18:21:04.724Z,78.63
2022-10-31T18:22:37.280Z,65.23
2022-10-31T18:24:10.042Z,65.63
2022-10-31T18:25:43.511Z,62.43
2022-10-31T18:27:16.292Z,63.43
2022-10-31T18:28:48.549Z,71.17
2022-10-31T18:30:20.721Z,70.87
2022-10-31T18:31:54.470Z,70.40
2022-10-31T18:33:26.838Z,65.57
2022-10-31T18:34:59.095Z,75.43
2022-10-31T18:36:31.497Z,77.73
2022-10-31T18:38:06.149Z,77.23
2022-10-31T18:39:39.284Z,80.27
2022-10-31T18:41:13.575Z,74.97
2022-10-31T18:42:45.824Z,78.53
2022-10-31T18:44:18.248Z,80.20
2022-10-31T18:45:54.991Z,67.93
2022-10-31T18:47:30.101Z,68.73
2022-10-31T18:49:04.294Z,74.17
2022-10-31T18:50:40.424Z,72.80
2022-10-31T18:52:12.818Z,74.47
2022-10-31T18:54:00.522Z,78.07
2022-10-31T18:55:32.736Z,81.97
2022-10-31T18:57:04.961Z,68.53
2022-10-31T18:58:38.197Z,80.87
2022-10-31T19:00:11.429Z,75.00
2022-10-31T19:01:43.757Z,72.13
2022-10-31T19:03:16.372Z,79.37
2022-10-31T19:04:48.922Z,79.47
2022-10-31T19:06:21.167Z,76.60
2022-10-31T19:07:54.578Z,71.90
2022-10-31T19:09:29.718Z,76.83
2022-10-31T19:11:11.768Z,82.03
2022-10-31T19:12:43.919Z,75.23
2022-10-31T19:14:16.730Z,142.57
2022-10-31T19:15:48.881Z,71.80
2022-10-31T19:17:21.059Z,74.03
2022-10-31T19:19:00.087Z,71.87
2022-10-31T19:20:33.713Z,75.83
2022-10-31T19:22:05.853Z,78.83
2022-10-31T19:23:38.883Z,74.23
2022-10-31T19:25:11.342Z,66.33
2022-10-31T19:26:44.087Z,71.17
2022-10-31T19:28:16.577Z,71.40
2022-10-31T19:29:48.900Z,72.50
2022-10-31T19:31:21.415Z,75.50
2022-10-31T19:32:57.146Z,71.70
2022-10-31T19:34:29.789Z,75.30
2022-10-31T19:36:09.571Z,72.50
2022-10-31T19:37:42.496Z,75.87
2022-10-31T19:39:14.919Z,72.67
2022-10-31T19:40:47.184Z,77.03
2022-10-31T19:42:19.597Z,84.20
2022-10-31T19:43:52.732Z,68.23
2022-10-31T19:45:26.156Z,70.30
2022-10-31T19:46:58.418Z,79.07
2022-10-31T19:48:31.870Z,83.80
2022-10-31T19:50:05.084Z,72.57
2022-10-31T19:51:37.884Z,103.07
2022-10-31T19:53:10.174Z,83.20
2022-10-31T19:54:42.402Z,85.60
2022-10-31T19:56:22.910Z,77.07
2022-10-31T19:58:02.683Z,88.50
2022-10-31T19:59:39.100Z,100.67
2022-10-31T20:01:16.251Z,83.13
2022-10-31T20:02:48.502Z,84.30
2022-10-31T20:04:20.658Z,78.83
2022-10-31T20:05:53.048Z,76.07
2022-10-31T20:07:25.994Z,78.70
2022-10-31T20:08:59.541Z,81.20
2022-10-31T20:10:31.711Z,82.77
2022-10-31T20:12:05.013Z,82.80
2022-10-31T20:13:37.214Z,77.50
2022-10-31T20:15:09.896Z,77.23
2022-10-31T20:16:45.682Z,79.27
2022-10-31T20:18:18.371Z,85.33
2022-10-31T20:19:50.803Z,76.83
2022-10-31T20:21:27.019Z,75.80
2022-10-31T20:23:00.710Z,81.10
2022-10-31T20:24:33.430Z,79.17
2022-10-31T20:26:09.062Z,86.63
2022-10-31T20:27:41.719Z,93.27
2022-10-31T20:29:19.461Z,87.33
2022-10-31T20:30:52.461Z,87.10
2022-10-31T20:32:24.850Z,86.97
2022-10-31T20:33:57.502Z,85.87
2022-10-31T20:35:29.652Z,89.07
2022-10-31T20:37:01.999Z,80.53
2022-10-31T20:38:37.200Z,94.63
2022-10-31T20:40:10.723Z,98.37
2022-10-31T20:41:43.302Z,97.63
2022-10-31T20:43:16.878Z,82.73
2022-10-31T20:44:49.049Z,83.70
2022-10-31T20:46:27.192Z,87.17
2022-10-31T20:48:00.112Z,92.60
2022-10-31T20:49:32.548Z,93.83
2022-10-31T20:51:19.586Z,98.17
2022-10-31T20:52:53.163Z,91.87
2022-10-31T20:54:25.450Z,87.97
2022-10-31T20:56:17.554Z,95.77
2022-10-31T20:57:50.201Z,86.50
2022-10-31T20:59:22.470Z,108.27
2022-10-31T21:00:55.322Z,94.33
2022-10-31T21:02:28.004Z,95.97
2022-10-31T21:04:00.686Z,94.80
2022-10-31T21:05:33.074Z,96.60
2022-10-31T21:07:05.547Z,95.03
2022-10-31T21:08:39.013Z,106.37
2022-10-31T21:10:16.977Z,106.07
2022-10-31T21:11:49.381Z,97.53
2022-10-31T21:13:22.830Z,95.83